sensor_id;sensor_type;location;lat;lon;timestamp;pressure;altitude;pressure_sealevel;temperature;humidity
250;BME280;109;19.806;-70.704;2023-08-01T00:01:36;101535.88;;;35.98;45.19
250;BME280;109;19.806;-70.704;2023-08-01T00:04:03;101541.72;;;35.93;44.98
250;BME280;109;19.806;-70.704;2023-08-01T00:06:30;101526.56;;;37.08;43.51
250;BME280;109;19.806;-70.704;2023-08-01T00:08:56;101532.31;;;37.05;43.70
250;BME280;109;19.806;-70.704;2023-08-01T00:11:22;101531.44;;;36.85;43.85
250;BME280;109;19.806;-70.704;2023-08-01T00:13:49;101529.53;;;37.24;43.48
250;BME280;109;19.806;-70.704;2023-08-01T00:16:15;101535.16;;;37.22;43.30
250;BME280;109;19.806;-70.704;2023-08-01T00:18:49;101530.41;;;37.24;43.17
250;BME280;109;19.806;-70.704;2023-08-01T00:21:16;101535.47;;;37.00;43.26
250;BME280;109;19.806;-70.704;2023-08-01T00:23:49;101531.16;;;36.69;43.74
250;BME280;109;19.806;-70.704;2023-08-01T00:26:15;101527.72;;;36.86;43.69
250;BME280;109;19.806;-70.704;2023-08-01T00:28:49;101531.47;;;37.04;43.06
250;BME280;109;19.806;-70.704;2023-08-01T00:31:17;101534.88;;;36.87;43.70
250;BME280;109;19.806;-70.704;2023-08-01T00:33:58;101539.19;;;37.09;43.52
250;BME280;109;19.806;-70.704;2023-08-01T00:36:38;101540.63;;;37.13;43.40
250;BME280;109;19.806;-70.704;2023-08-01T00:39:04;101537.84;;;37.32;42.72
250;BME280;109;19.806;-70.704;2023-08-01T00:41:38;101548.47;;;37.45;42.97
250;BME280;109;19.806;-70.704;2023-08-01T00:44:04;101550.94;;;37.19;42.79
250;BME280;109;19.806;-70.704;2023-08-01T00:46:38;101568.22;;;37.00;43.24
250;BME280;109;19.806;-70.704;2023-08-01T00:49:05;101565.44;;;37.19;42.77
250;BME280;109;19.806;-70.704;2023-08-01T00:51:38;101562.63;;;37.02;43.35
250;BME280;109;19.806;-70.704;2023-08-01T00:54:05;101557.13;;;37.21;42.80
250;BME280;109;19.806;-70.704;2023-08-01T00:56:38;101565.34;;;37.11;43.04
250;BME280;109;19.806;-70.704;2023-08-01T00:59:05;101569.78;;;37.22;42.96
250;BME280;109;19.806;-70.704;2023-08-01T01:01:38;101567.03;;;37.22;43.11
250;BME280;109;19.806;-70.704;2023-08-01T01:04:04;101580.00;;;37.10;42.88
250;BME280;109;19.806;-70.704;2023-08-01T01:07:05;101588.84;;;36.93;42.71
250;BME280;109;19.806;-70.704;2023-08-01T01:09:39;101579.72;;;37.04;41.96
250;BME280;109;19.806;-70.704;2023-08-01T01:12:06;101589.91;;;37.02;41.72
250;BME280;109;19.806;-70.704;2023-08-01T01:14:39;101594.88;;;36.68;42.46
250;BME280;109;19.806;-70.704;2023-08-01T01:17:06;101605.97;;;36.76;42.26
250;BME280;109;19.806;-70.704;2023-08-01T01:19:39;101602.06;;;36.69;42.28
250;BME280;109;19.806;-70.704;2023-08-01T01:22:07;101599.22;;;36.89;41.83
250;BME280;109;19.806;-70.704;2023-08-01T01:24:42;101604.38;;;36.83;41.70
250;BME280;109;19.806;-70.704;2023-08-01T01:27:09;101609.69;;;36.84;41.75
250;BME280;109;19.806;-70.704;2023-08-01T01:29:50;101604.97;;;36.86;41.81
250;BME280;109;19.806;-70.704;2023-08-01T01:32:23;101605.22;;;36.83;41.76
250;BME280;109;19.806;-70.704;2023-08-01T01:34:50;101608.09;;;36.82;41.72
250;BME280;109;19.806;-70.704;2023-08-01T01:37:23;101609.25;;;36.79;41.91
250;BME280;109;19.806;-70.704;2023-08-01T01:40:03;101603.38;;;36.74;42.19
250;BME280;109;19.806;-70.704;2023-08-01T01:42:30;101614.94;;;36.57;42.18
250;BME280;109;19.806;-70.704;2023-08-01T01:45:03;101626.06;;;36.75;42.54
250;BME280;109;19.806;-70.704;2023-08-01T01:47:30;101621.00;;;36.60;42.64
250;BME280;109;19.806;-70.704;2023-08-01T01:50:03;101627.91;;;36.74;42.23
250;BME280;109;19.806;-70.704;2023-08-01T01:52:31;101625.06;;;36.76;42.39
250;BME280;109;19.806;-70.704;2023-08-01T01:55:05;101615.84;;;36.27;43.09
250;BME280;109;19.806;-70.704;2023-08-01T01:57:33;101624.09;;;36.16;43.54
250;BME280;109;19.806;-70.704;2023-08-01T02:00:09;101631.91;;;36.60;43.39
250;BME280;109;19.806;-70.704;2023-08-01T02:02:45;101625.91;;;36.86;42.83
250;BME280;109;19.806;-70.704;2023-08-01T02:05:12;101625.25;;;37.03;42.70
250;BME280;109;19.806;-70.704;2023-08-01T02:07:45;101622.78;;;37.29;42.25
250;BME280;109;19.806;-70.704;2023-08-01T02:10:12;101628.66;;;37.05;42.02
250;BME280;109;19.806;-70.704;2023-08-01T02:12:51;101617.31;;;36.90;42.30
250;BME280;109;19.806;-70.704;2023-08-01T02:15:19;101617.78;;;36.55;42.09
250;BME280;109;19.806;-70.704;2023-08-01T02:17:52;101609.38;;;36.58;42.75
250;BME280;109;19.806;-70.704;2023-08-01T02:20:20;101601.97;;;36.30;42.66
250;BME280;109;19.806;-70.704;2023-08-01T02:22:55;101610.47;;;36.16;43.55
250;BME280;109;19.806;-70.704;2023-08-01T02:25:30;101609.47;;;36.47;42.67
250;BME280;109;19.806;-70.704;2023-08-01T02:28:03;101610.59;;;36.35;43.00
250;BME280;109;19.806;-70.704;2023-08-01T02:30:30;101601.41;;;36.26;43.55
250;BME280;109;19.806;-70.704;2023-08-01T02:33:04;101608.88;;;36.44;42.67
250;BME280;109;19.806;-70.704;2023-08-01T02:35:51;101611.88;;;36.41;43.21
250;BME280;109;19.806;-70.704;2023-08-01T02:38:24;101617.19;;;36.42;42.76
250;BME280;109;19.806;-70.704;2023-08-01T02:40:51;101611.59;;;37.03;42.13
250;BME280;109;19.806;-70.704;2023-08-01T02:43:24;101610.53;;;36.94;42.46
250;BME280;109;19.806;-70.704;2023-08-01T02:45:51;101604.25;;;36.75;42.30
250;BME280;109;19.806;-70.704;2023-08-01T02:48:24;101601.78;;;36.81;42.09
250;BME280;109;19.806;-70.704;2023-08-01T02:50:51;101599.97;;;37.01;41.69
250;BME280;109;19.806;-70.704;2023-08-01T02:53:24;101595.31;;;36.73;42.16
250;BME280;109;19.806;-70.704;2023-08-01T02:55:50;101595.19;;;36.93;41.88
250;BME280;109;19.806;-70.704;2023-08-01T02:58:24;101596.81;;;37.15;41.26
250;BME280;109;19.806;-70.704;2023-08-01T03:00:51;101604.69;;;37.09;41.71
250;BME280;109;19.806;-70.704;2023-08-01T03:03:24;101606.66;;;36.68;41.98
250;BME280;109;19.806;-70.704;2023-08-01T03:05:52;101602.91;;;36.59;41.70
250;BME280;109;19.806;-70.704;2023-08-01T03:08:25;101601.78;;;36.62;42.01
250;BME280;109;19.806;-70.704;2023-08-01T03:10:51;101600.78;;;36.73;41.76
250;BME280;109;19.806;-70.704;2023-08-01T03:13:25;101601.06;;;36.70;42.28
250;BME280;109;19.806;-70.704;2023-08-01T03:15:52;101601.06;;;36.79;41.47
250;BME280;109;19.806;-70.704;2023-08-01T03:18:25;101591.31;;;36.86;41.91
250;BME280;109;19.806;-70.704;2023-08-01T03:20:51;101589.44;;;36.87;41.60
250;BME280;109;19.806;-70.704;2023-08-01T03:23:25;101593.31;;;36.84;41.83
250;BME280;109;19.806;-70.704;2023-08-01T03:25:59;101586.44;;;36.90;41.37
250;BME280;109;19.806;-70.704;2023-08-01T03:28:32;101582.72;;;36.91;41.12
250;BME280;109;19.806;-70.704;2023-08-01T03:30:58;101589.28;;;36.79;41.24
250;BME280;109;19.806;-70.704;2023-08-01T03:33:33;101590.31;;;36.78;41.66
250;BME280;109;19.806;-70.704;2023-08-01T03:36:19;101591.19;;;36.88;41.04
250;BME280;109;19.806;-70.704;2023-08-01T03:38:52;101586.28;;;36.82;41.08
250;BME280;109;19.806;-70.704;2023-08-01T03:41:18;101589.31;;;36.88;41.24
250;BME280;109;19.806;-70.704;2023-08-01T03:43:53;101590.44;;;36.86;41.18
250;BME280;109;19.806;-70.704;2023-08-01T03:46:20;101591.88;;;36.71;41.81
250;BME280;109;19.806;-70.704;2023-08-01T03:48:53;101585.72;;;36.88;41.42
250;BME280;109;19.806;-70.704;2023-08-01T03:51:20;101591.75;;;36.91;41.29
250;BME280;109;19.806;-70.704;2023-08-01T03:53:53;101598.03;;;36.92;41.39
250;BME280;109;19.806;-70.704;2023-08-01T03:56:19;101601.66;;;36.73;41.43
250;BME280;109;19.806;-70.704;2023-08-01T03:58:53;101605.31;;;36.53;42.00
250;BME280;109;19.806;-70.704;2023-08-01T04:01:19;101603.50;;;36.63;42.09
250;BME280;109;19.806;-70.704;2023-08-01T04:03:53;101595.09;;;36.45;42.25
250;BME280;109;19.806;-70.704;2023-08-01T04:06:20;101591.28;;;36.67;41.80
250;BME280;109;19.806;-70.704;2023-08-01T04:08:53;101589.16;;;36.71;41.69
250;BME280;109;19.806;-70.704;2023-08-01T04:11:22;101596.78;;;36.77;41.43
250;BME280;109;19.806;-70.704;2023-08-01T04:13:56;101583.00;;;36.78;41.51
250;BME280;109;19.806;-70.704;2023-08-01T04:16:29;101589.16;;;36.90;41.81
250;BME280;109;19.806;-70.704;2023-08-01T04:19:02;101583.00;;;36.88;41.67
250;BME280;109;19.806;-70.704;2023-08-01T04:21:29;101582.13;;;36.97;41.15
250;BME280;109;19.806;-70.704;2023-08-01T04:24:02;101582.25;;;36.95;41.30
250;BME280;109;19.806;-70.704;2023-08-01T04:26:29;101579.09;;;36.81;41.36
250;BME280;109;19.806;-70.704;2023-08-01T04:29:02;101577.22;;;36.81;41.45
250;BME280;109;19.806;-70.704;2023-08-01T04:31:28;101578.81;;;36.84;41.64
250;BME280;109;19.806;-70.704;2023-08-01T04:34:01;101577.97;;;36.74;41.71
250;BME280;109;19.806;-70.704;2023-08-01T04:36:48;101569.34;;;36.88;41.12
250;BME280;109;19.806;-70.704;2023-08-01T04:39:21;101571.47;;;36.94;41.41
250;BME280;109;19.806;-70.704;2023-08-01T04:41:47;101568.91;;;36.92;41.12
250;BME280;109;19.806;-70.704;2023-08-01T04:44:22;101580.25;;;36.69;41.32
250;BME280;109;19.806;-70.704;2023-08-01T04:46:48;101581.28;;;36.77;41.36
250;BME280;109;19.806;-70.704;2023-08-01T04:49:22;101574.94;;;36.86;41.26
250;BME280;109;19.806;-70.704;2023-08-01T04:51:58;101569.34;;;36.88;41.34
250;BME280;109;19.806;-70.704;2023-08-01T04:54:31;101572.97;;;36.98;40.80
250;BME280;109;19.806;-70.704;2023-08-01T04:56:57;101565.91;;;36.76;41.38
250;BME280;109;19.806;-70.704;2023-08-01T04:59:31;101570.78;;;36.82;40.98
250;BME280;109;19.806;-70.704;2023-08-01T05:01:58;101567.47;;;36.79;41.28
250;BME280;109;19.806;-70.704;2023-08-01T05:04:31;101561.88;;;36.71;40.95
250;BME280;109;19.806;-70.704;2023-08-01T05:06:57;101556.00;;;36.66;41.26
250;BME280;109;19.806;-70.704;2023-08-01T05:09:32;101560.59;;;36.65;41.15
250;BME280;109;19.806;-70.704;2023-08-01T05:11:58;101548.38;;;36.69;41.22
250;BME280;109;19.806;-70.704;2023-08-01T05:14:31;101547.66;;;36.67;41.17
250;BME280;109;19.806;-70.704;2023-08-01T05:16:57;101538.84;;;36.44;41.39
250;BME280;109;19.806;-70.704;2023-08-01T05:19:30;101534.53;;;36.42;41.48
250;BME280;109;19.806;-70.704;2023-08-01T05:21:56;101526.00;;;36.66;41.16
250;BME280;109;19.806;-70.704;2023-08-01T05:24:30;101527.13;;;36.73;40.92
250;BME280;109;19.806;-70.704;2023-08-01T05:26:57;101515.03;;;36.46;41.20
250;BME280;109;19.806;-70.704;2023-08-01T05:29:30;101510.22;;;36.59;41.34
250;BME280;109;19.806;-70.704;2023-08-01T05:31:56;101509.47;;;36.57;41.02
250;BME280;109;19.806;-70.704;2023-08-01T05:34:29;101508.47;;;36.58;41.05
250;BME280;109;19.806;-70.704;2023-08-01T05:37:16;101509.72;;;36.54;41.27
250;BME280;109;19.806;-70.704;2023-08-01T05:39:49;101509.31;;;36.49;41.02
250;BME280;109;19.806;-70.704;2023-08-01T05:42:15;101510.03;;;36.51;41.47
250;BME280;109;19.806;-70.704;2023-08-01T05:44:49;101514.66;;;36.60;41.17
250;BME280;109;19.806;-70.704;2023-08-01T05:47:15;101511.31;;;36.57;41.34
250;BME280;109;19.806;-70.704;2023-08-01T05:49:49;101512.03;;;36.49;41.45
250;BME280;109;19.806;-70.704;2023-08-01T05:52:23;101511.22;;;36.58;41.28
250;BME280;109;19.806;-70.704;2023-08-01T05:54:56;101512.94;;;36.59;41.04
250;BME280;109;19.806;-70.704;2023-08-01T05:57:22;101498.81;;;36.45;41.28
250;BME280;109;19.806;-70.704;2023-08-01T05:59:56;101499.41;;;36.48;41.02
250;BME280;109;19.806;-70.704;2023-08-01T06:02:22;101492.22;;;36.47;41.31
250;BME280;109;19.806;-70.704;2023-08-01T06:04:55;101502.13;;;36.39;41.39
250;BME280;109;19.806;-70.704;2023-08-01T06:07:21;101492.66;;;36.33;41.38
250;BME280;109;19.806;-70.704;2023-08-01T06:09:55;101490.06;;;36.41;41.04
250;BME280;109;19.806;-70.704;2023-08-01T06:12:21;101503.28;;;36.26;41.32
250;BME280;109;19.806;-70.704;2023-08-01T06:14:55;101495.69;;;36.40;41.81
250;BME280;109;19.806;-70.704;2023-08-01T06:17:22;101494.38;;;36.34;41.84
250;BME280;109;19.806;-70.704;2023-08-01T06:19:55;101497.50;;;36.20;41.58
250;BME280;109;19.806;-70.704;2023-08-01T06:22:21;101490.94;;;36.32;41.42
250;BME280;109;19.806;-70.704;2023-08-01T06:24:54;101485.47;;;36.42;41.77
250;BME280;109;19.806;-70.704;2023-08-01T06:27:20;101484.59;;;36.41;41.71
250;BME280;109;19.806;-70.704;2023-08-01T06:29:53;101481.19;;;36.39;41.07
250;BME280;109;19.806;-70.704;2023-08-01T06:32:19;101485.06;;;36.37;41.61
250;BME280;109;19.806;-70.704;2023-08-01T06:34:52;101475.03;;;36.37;41.17
250;BME280;109;19.806;-70.704;2023-08-01T06:37:39;101464.53;;;36.42;41.50
250;BME280;109;19.806;-70.704;2023-08-01T06:40:12;101458.53;;;36.58;41.11
250;BME280;109;19.806;-70.704;2023-08-01T06:42:39;101460.25;;;36.69;40.66
250;BME280;109;19.806;-70.704;2023-08-01T06:45:13;101453.66;;;36.61;41.24
250;BME280;109;19.806;-70.704;2023-08-01T06:47:40;101460.56;;;36.66;40.96
250;BME280;109;19.806;-70.704;2023-08-01T06:50:13;101454.06;;;36.47;41.13
250;BME280;109;19.806;-70.704;2023-08-01T06:52:46;101460.81;;;36.34;41.46
250;BME280;109;19.806;-70.704;2023-08-01T06:55:20;101467.56;;;36.39;41.32
250;BME280;109;19.806;-70.704;2023-08-01T06:57:47;101462.38;;;36.46;41.15
250;BME280;109;19.806;-70.704;2023-08-01T07:00:20;101469.97;;;36.42;41.36
250;BME280;109;19.806;-70.704;2023-08-01T07:02:47;101469.41;;;36.48;40.88
250;BME280;109;19.806;-70.704;2023-08-01T07:05:20;101467.69;;;36.47;41.20
250;BME280;109;19.806;-70.704;2023-08-01T07:07:47;101466.69;;;36.48;40.84
250;BME280;109;19.806;-70.704;2023-08-01T07:10:20;101468.59;;;36.57;40.92
250;BME280;109;19.806;-70.704;2023-08-01T07:12:47;101462.09;;;36.39;40.75
250;BME280;109;19.806;-70.704;2023-08-01T07:15:20;101460.94;;;36.42;41.03
250;BME280;109;19.806;-70.704;2023-08-01T07:17:46;101455.78;;;36.19;41.01
250;BME280;109;19.806;-70.704;2023-08-01T07:20:27;101465.09;;;36.17;41.26
250;BME280;109;19.806;-70.704;2023-08-01T07:23:00;101461.09;;;36.31;40.72
250;BME280;109;19.806;-70.704;2023-08-01T07:25:26;101463.25;;;36.46;40.48
250;BME280;109;19.806;-70.704;2023-08-01T07:27:59;101461.09;;;36.21;40.88
250;BME280;109;19.806;-70.704;2023-08-01T07:30:26;101457.34;;;36.41;40.55
250;BME280;109;19.806;-70.704;2023-08-01T07:32:59;101457.50;;;36.49;40.38
250;BME280;109;19.806;-70.704;2023-08-01T07:35:26;101455.34;;;36.43;40.61
250;BME280;109;19.806;-70.704;2023-08-01T07:37:59;101460.78;;;36.43;40.70
250;BME280;109;19.806;-70.704;2023-08-01T07:40:39;101453.06;;;36.48;40.42
250;BME280;109;19.806;-70.704;2023-08-01T07:43:05;101452.31;;;36.27;40.58
250;BME280;109;19.806;-70.704;2023-08-01T07:45:38;101451.91;;;36.22;40.76
250;BME280;109;19.806;-70.704;2023-08-01T07:48:05;101453.19;;;36.18;40.49
250;BME280;109;19.806;-70.704;2023-08-01T07:50:38;101437.84;;;36.17;40.67
250;BME280;109;19.806;-70.704;2023-08-01T07:53:12;101434.94;;;36.09;40.41
250;BME280;109;19.806;-70.704;2023-08-01T07:55:45;101433.34;;;36.16;40.78
250;BME280;109;19.806;-70.704;2023-08-01T07:58:12;101431.63;;;36.15;40.16
250;BME280;109;19.806;-70.704;2023-08-01T08:00:45;101432.34;;;36.07;40.71
250;BME280;109;19.806;-70.704;2023-08-01T08:03:11;101427.75;;;36.08;40.64
250;BME280;109;19.806;-70.704;2023-08-01T08:05:44;101429.75;;;36.06;40.31
250;BME280;109;19.806;-70.704;2023-08-01T08:08:11;101432.63;;;36.14;40.53
250;BME280;109;19.806;-70.704;2023-08-01T08:10:44;101437.41;;;36.21;40.36
250;BME280;109;19.806;-70.704;2023-08-01T08:16:15;101425.19;;;36.16;40.24
250;BME280;109;19.806;-70.704;2023-08-01T08:18:54;101429.19;;;36.02;40.53
250;BME280;109;19.806;-70.704;2023-08-01T08:21:20;101428.19;;;36.03;40.37
250;BME280;109;19.806;-70.704;2023-08-01T08:23:55;101437.84;;;36.17;40.34
250;BME280;109;19.806;-70.704;2023-08-01T08:26:21;101442.72;;;36.33;40.19
250;BME280;109;19.806;-70.704;2023-08-01T08:28:54;101439.59;;;36.37;39.63
250;BME280;109;19.806;-70.704;2023-08-01T08:31:20;101429.19;;;36.02;40.03
250;BME280;109;19.806;-70.704;2023-08-01T08:33:53;101439.28;;;36.31;40.01
250;BME280;109;19.806;-70.704;2023-08-01T08:36:19;101438.28;;;36.22;39.67
250;BME280;109;19.806;-70.704;2023-08-01T08:38:52;101434.34;;;36.05;40.06
250;BME280;109;19.806;-70.704;2023-08-01T08:41:26;101434.69;;;36.21;39.76
250;BME280;109;19.806;-70.704;2023-08-01T08:43:59;101446.41;;;36.12;39.96
250;BME280;109;19.806;-70.704;2023-08-01T08:46:29;101444.16;;;36.17;40.08
250;BME280;109;19.806;-70.704;2023-08-01T08:49:02;101438.94;;;36.14;40.39
250;BME280;109;19.806;-70.704;2023-08-01T08:51:45;101439.00;;;36.24;40.32
250;BME280;109;19.806;-70.704;2023-08-01T08:54:19;101440.41;;;36.18;40.43
250;BME280;109;19.806;-70.704;2023-08-01T08:56:59;101433.84;;;36.21;39.99
250;BME280;109;19.806;-70.704;2023-08-01T08:59:33;101429.66;;;36.17;39.83
250;BME280;109;19.806;-70.704;2023-08-01T09:02:07;101438.00;;;36.25;39.90
250;BME280;109;19.806;-70.704;2023-08-01T09:04:34;101441.00;;;36.41;40.33
250;BME280;109;19.806;-70.704;2023-08-01T09:07:09;101442.72;;;36.42;39.83
250;BME280;109;19.806;-70.704;2023-08-01T09:09:37;101438.72;;;36.46;39.84
250;BME280;109;19.806;-70.704;2023-08-01T09:12:10;101444.44;;;36.43;39.62
250;BME280;109;19.806;-70.704;2023-08-01T09:14:38;101446.03;;;36.26;40.29
250;BME280;109;19.806;-70.704;2023-08-01T09:17:11;101445.75;;;36.39;39.64
250;BME280;109;19.806;-70.704;2023-08-01T09:20:11;101452.03;;;36.30;39.76
250;BME280;109;19.806;-70.704;2023-08-01T09:22:45;101452.63;;;36.24;40.45
250;BME280;109;19.806;-70.704;2023-08-01T09:25:12;101445.19;;;36.26;40.12
250;BME280;109;19.806;-70.704;2023-08-01T09:27:45;101448.09;;;35.94;40.33
250;BME280;109;19.806;-70.704;2023-08-01T09:30:13;101446.41;;;36.12;40.36
250;BME280;109;19.806;-70.704;2023-08-01T09:32:55;101439.53;;;36.08;40.46
250;BME280;109;19.806;-70.704;2023-08-01T09:35:38;101443.16;;;36.18;40.67
250;BME280;109;19.806;-70.704;2023-08-01T09:38:15;101438.94;;;36.05;40.42
250;BME280;109;19.806;-70.704;2023-08-01T09:40:48;101438.69;;;36.27;40.10
250;BME280;109;19.806;-70.704;2023-08-01T09:43:16;101435.69;;;36.30;39.99
250;BME280;109;19.806;-70.704;2023-08-01T09:45:53;101440.41;;;36.28;40.39
250;BME280;109;19.806;-70.704;2023-08-01T09:48:27;101441.00;;;36.22;40.17
250;BME280;109;19.806;-70.704;2023-08-01T09:51:18;101441.00;;;36.22;40.09
250;BME280;109;19.806;-70.704;2023-08-01T09:53:54;101450.19;;;36.31;40.29
250;BME280;109;19.806;-70.704;2023-08-01T09:56:23;101451.63;;;36.35;40.00
250;BME280;109;19.806;-70.704;2023-08-01T09:58:56;101453.91;;;36.29;40.28
250;BME280;109;19.806;-70.704;2023-08-01T10:01:25;101449.59;;;36.27;40.17
250;BME280;109;19.806;-70.704;2023-08-01T10:04:00;101458.09;;;36.24;40.59
250;BME280;109;19.806;-70.704;2023-08-01T10:06:33;101459.94;;;36.23;40.27
250;BME280;109;19.806;-70.704;2023-08-01T10:09:10;101462.31;;;35.98;40.46
250;BME280;109;19.806;-70.704;2023-08-01T10:11:38;101463.63;;;36.13;40.37
250;BME280;109;19.806;-70.704;2023-08-01T10:14:11;101466.16;;;35.85;40.45
250;BME280;109;19.806;-70.704;2023-08-01T10:16:39;101467.91;;;35.96;40.34
250;BME280;109;19.806;-70.704;2023-08-01T10:19:14;101459.59;;;36.07;40.48
250;BME280;109;19.806;-70.704;2023-08-01T10:21:42;101461.47;;;36.07;40.38
250;BME280;109;19.806;-70.704;2023-08-01T10:24:17;101467.97;;;36.25;40.21
250;BME280;109;19.806;-70.704;2023-08-01T10:26:46;101472.25;;;36.27;40.18
250;BME280;109;19.806;-70.704;2023-08-01T10:29:19;101479.03;;;36.33;40.29
250;BME280;109;19.806;-70.704;2023-08-01T10:31:53;101478.94;;;36.14;40.13
250;BME280;109;19.806;-70.704;2023-08-01T10:34:26;101494.78;;;36.20;40.08
250;BME280;109;19.806;-70.704;2023-08-01T10:36:59;101491.22;;;36.39;40.14
250;BME280;109;19.806;-70.704;2023-08-01T10:39:33;101484.03;;;36.28;40.15
250;BME280;109;19.806;-70.704;2023-08-01T10:42:07;101493.97;;;36.39;40.04
250;BME280;109;19.806;-70.704;2023-08-01T10:44:46;101491.66;;;36.44;39.95
250;BME280;109;19.806;-70.704;2023-08-01T10:47:26;101511.88;;;36.32;39.78
250;BME280;109;19.806;-70.704;2023-08-01T10:50:00;101511.28;;;36.28;40.17
250;BME280;109;19.806;-70.704;2023-08-01T10:52:27;101502.13;;;36.48;39.58
250;BME280;109;19.806;-70.704;2023-08-01T10:55:02;101508.00;;;36.53;39.69
250;BME280;109;19.806;-70.704;2023-08-01T10:57:30;101513.63;;;36.52;39.65
250;BME280;109;19.806;-70.704;2023-08-01T11:00:04;101503.41;;;36.35;40.16
250;BME280;109;19.806;-70.704;2023-08-01T11:02:41;101503.59;;;36.62;39.65
250;BME280;109;19.806;-70.704;2023-08-01T11:05:08;101507.72;;;36.56;39.86
250;BME280;109;19.806;-70.704;2023-08-01T11:07:41;101504.88;;;36.68;39.80
250;BME280;109;19.806;-70.704;2023-08-01T11:10:13;101515.22;;;36.74;40.03
250;BME280;109;19.806;-70.704;2023-08-01T11:12:46;101512.91;;;36.69;39.71
250;BME280;109;19.806;-70.704;2023-08-01T11:15:14;101511.19;;;36.68;39.61
250;BME280;109;19.806;-70.704;2023-08-01T11:17:49;101503.72;;;35.91;40.99
250;BME280;109;19.806;-70.704;2023-08-01T11:20:29;101503.44;;;35.94;40.91
250;BME280;109;19.806;-70.704;2023-08-01T11:22:58;101507.91;;;36.05;40.94
250;BME280;109;19.806;-70.704;2023-08-01T11:25:37;101499.59;;;36.76;39.74
250;BME280;109;19.806;-70.704;2023-08-01T11:28:14;101504.19;;;37.04;39.71
250;BME280;109;19.806;-70.704;2023-08-01T11:30:48;101519.25;;;36.01;41.09
250;BME280;109;19.806;-70.704;2023-08-01T11:33:22;101514.13;;;36.17;40.95
250;BME280;109;19.806;-70.704;2023-08-01T11:36:04;101513.31;;;36.45;40.67
250;BME280;109;19.806;-70.704;2023-08-01T11:38:38;101508.72;;;36.55;40.42
250;BME280;109;19.806;-70.704;2023-08-01T11:41:05;101504.41;;;36.53;40.54
250;BME280;109;19.806;-70.704;2023-08-01T11:43:42;101506.84;;;37.43;38.88
250;BME280;109;19.806;-70.704;2023-08-01T11:46:15;101506.75;;;36.57;40.18
250;BME280;109;19.806;-70.704;2023-08-01T11:48:46;101516.09;;;36.65;40.01
250;BME280;109;19.806;-70.704;2023-08-01T11:51:24;101504.13;;;37.23;39.54
250;BME280;109;19.806;-70.704;2023-08-01T11:54:04;101506.41;;;37.28;39.32
250;BME280;109;19.806;-70.704;2023-08-01T11:56:38;101505.06;;;37.88;38.61
250;BME280;109;19.806;-70.704;2023-08-01T11:59:13;101506.63;;;37.91;38.47
250;BME280;109;19.806;-70.704;2023-08-01T12:01:47;101505.22;;;37.50;39.01
250;BME280;109;19.806;-70.704;2023-08-01T12:04:25;101515.47;;;38.02;38.19
250;BME280;109;19.806;-70.704;2023-08-01T12:06:58;101512.97;;;37.91;38.74
250;BME280;109;19.806;-70.704;2023-08-01T12:09:25;101516.91;;;38.07;38.32
250;BME280;109;19.806;-70.704;2023-08-01T12:12:06;101514.72;;;37.83;38.37
250;BME280;109;19.806;-70.704;2023-08-01T12:14:40;101518.66;;;38.25;38.57
250;BME280;109;19.806;-70.704;2023-08-01T12:17:07;101517.53;;;38.81;38.11
250;BME280;109;19.806;-70.704;2023-08-01T12:19:40;101519.56;;;38.97;37.66
250;BME280;109;19.806;-70.704;2023-08-01T12:22:20;101525.41;;;38.03;38.93
250;BME280;109;19.806;-70.704;2023-08-01T12:24:46;101519.38;;;37.63;39.28
250;BME280;109;19.806;-70.704;2023-08-01T12:27:19;101526.16;;;37.59;39.57
250;BME280;109;19.806;-70.704;2023-08-01T12:29:46;101530.31;;;36.78;40.67
250;BME280;109;19.806;-70.704;2023-08-01T12:32:18;101530.00;;;36.90;40.63
250;BME280;109;19.806;-70.704;2023-08-01T12:34:45;101532.09;;;37.35;40.27
250;BME280;109;19.806;-70.704;2023-08-01T12:37:17;101520.78;;;37.30;39.94
250;BME280;109;19.806;-70.704;2023-08-01T12:39:44;101527.75;;;38.16;38.90
250;BME280;109;19.806;-70.704;2023-08-01T12:42:17;101527.44;;;38.64;38.24
250;BME280;109;19.806;-70.704;2023-08-01T12:44:44;101527.91;;;38.42;38.47
250;BME280;109;19.806;-70.704;2023-08-01T12:47:17;101531.78;;;38.40;38.90
250;BME280;109;19.806;-70.704;2023-08-01T12:49:44;101526.44;;;38.65;38.46
250;BME280;109;19.806;-70.704;2023-08-01T12:52:24;101528.13;;;38.49;38.73
250;BME280;109;19.806;-70.704;2023-08-01T12:54:57;101531.53;;;38.60;38.99
250;BME280;109;19.806;-70.704;2023-08-01T12:57:31;101541.97;;;39.00;38.81
250;BME280;109;19.806;-70.704;2023-08-01T13:00:05;101541.25;;;39.34;38.06
250;BME280;109;19.806;-70.704;2023-08-01T13:02:31;101548.03;;;39.82;37.90
250;BME280;109;19.806;-70.704;2023-08-01T13:05:05;101540.31;;;39.77;37.98
250;BME280;109;19.806;-70.704;2023-08-01T13:07:32;101542.06;;;39.94;38.15
250;BME280;109;19.806;-70.704;2023-08-01T13:10:05;101545.69;;;39.61;38.35
250;BME280;109;19.806;-70.704;2023-08-01T13:12:32;101544.16;;;39.66;38.26
250;BME280;109;19.806;-70.704;2023-08-01T13:15:06;101539.44;;;39.25;38.74
250;BME280;109;19.806;-70.704;2023-08-01T13:17:52;101544.47;;;38.41;40.53
250;BME280;109;19.806;-70.704;2023-08-01T13:20:25;101541.97;;;38.47;40.15
250;BME280;109;19.806;-70.704;2023-08-01T13:22:52;101544.41;;;39.29;38.93
250;BME280;109;19.806;-70.704;2023-08-01T13:25:25;101547.25;;;39.37;38.62
250;BME280;109;19.806;-70.704;2023-08-01T13:27:52;101553.25;;;39.41;38.74
250;BME280;109;19.806;-70.704;2023-08-01T13:30:25;101551.69;;;39.38;38.99
250;BME280;109;19.806;-70.704;2023-08-01T13:32:52;101549.13;;;39.37;39.40
250;BME280;109;19.806;-70.704;2023-08-01T13:35:24;101549.47;;;39.68;38.87
250;BME280;109;19.806;-70.704;2023-08-01T13:37:51;101550.75;;;39.73;38.48